createdAt,value
2018-07-23T00:01:06.140Z,17.15
2018-07-23T00:03:10.050Z,17.70
2018-07-23T00:05:13.897Z,21.30
2018-07-23T00:07:17.403Z,19.23
2018-07-23T00:09:21.267Z,17.95
2018-07-23T00:11:25.152Z,19.20
2018-07-23T00:13:28.932Z,17.30
2018-07-23T00:15:32.827Z,19.93
2018-07-23T00:17:36.942Z,19.30
2018-07-23T00:19:40.812Z,18.87
2018-07-23T00:21:44.322Z,17.77
2018-07-23T00:23:47.804Z,19.90
2018-07-23T00:25:51.680Z,19.85
2018-07-23T00:27:55.576Z,16.67
2018-07-23T00:29:59.369Z,16.30
2018-07-23T00:32:03.272Z,17.33
2018-07-23T00:34:07.066Z,18.60
2018-07-23T00:36:11.025Z,18.93
2018-07-23T00:38:14.433Z,17.13
2018-07-23T00:40:18.383Z,17.87
2018-07-23T00:42:22.309Z,18.60
2018-07-23T00:44:26.447Z,20.70
2018-07-23T00:46:30.238Z,18.03
2018-07-23T00:48:34.227Z,17.70
2018-07-23T00:50:38.024Z,16.23
2018-07-23T00:52:41.926Z,18.93
2018-07-23T00:54:45.980Z,19.70
2018-07-23T00:56:49.486Z,20.43
2018-07-23T00:58:52.893Z,19.35
2018-07-23T01:00:56.779Z,20.83
2018-07-23T01:03:05.766Z,19.50
2018-07-23T01:05:09.747Z,23.33
2018-07-23T01:07:13.552Z,18.20
2018-07-23T01:09:17.041Z,19.17
2018-07-23T01:11:20.870Z,20.08
2018-07-23T01:13:24.737Z,19.20
2018-07-23T01:15:28.635Z,17.37
2018-07-23T01:17:34.669Z,18.77
2018-07-23T01:19:38.617Z,20.10
2018-07-23T01:21:42.574Z,22.00
2018-07-23T01:23:46.471Z,22.00
2018-07-23T01:25:50.256Z,21.17
2018-07-23T01:27:54.231Z,23.53
2018-07-23T01:29:57.650Z,21.73
2018-07-23T01:32:01.530Z,21.70
2018-07-23T01:34:05.487Z,22.33
2018-07-23T01:36:09.449Z,23.83
2018-07-23T01:38:13.275Z,20.20
2018-07-23T01:40:17.296Z,23.93
2018-07-23T01:42:21.092Z,20.77
2018-07-23T01:44:25.097Z,21.70
2018-07-23T01:46:28.872Z,18.57
2018-07-23T01:48:32.753Z,25.47
2018-07-23T01:50:36.795Z,21.70
2018-07-23T01:52:40.937Z,19.43
2018-07-23T01:54:45.396Z,21.97
2018-07-23T01:56:49.322Z,23.50
2018-07-23T01:58:53.124Z,19.77
2018-07-23T02:00:57.269Z,21.97
2018-07-23T02:03:01.187Z,20.20
2018-07-23T02:05:05.128Z,33.43
2018-07-23T02:07:09.314Z,19.60
2018-07-23T02:09:13.986Z,21.63
2018-07-23T02:11:17.392Z,21.80
2018-07-23T02:13:21.278Z,19.67
2018-07-23T02:15:25.109Z,21.97
2018-07-23T02:17:29.053Z,21.80
2018-07-23T02:19:32.895Z,18.90
2018-07-23T02:21:37.015Z,21.83
2018-07-23T02:23:40.415Z,18.60
2018-07-23T02:25:44.317Z,21.90
2018-07-23T02:27:48.101Z,21.70
2018-07-23T02:29:51.999Z,22.67
2018-07-23T02:31:55.825Z,19.63
2018-07-23T02:33:59.277Z,22.30
2018-07-23T02:36:03.045Z,21.30
2018-07-23T02:38:07.482Z,20.57
2018-07-23T02:40:11.540Z,21.95
2018-07-23T02:42:15.417Z,22.83
2018-07-23T02:44:19.263Z,25.00
2018-07-23T02:46:23.136Z,22.30
2018-07-23T02:48:26.669Z,25.60
2018-07-23T02:50:30.591Z,28.90
2018-07-23T02:52:34.378Z,22.67
2018-07-23T02:54:38.228Z,22.33
2018-07-23T02:56:42.008Z,26.13
2018-07-23T02:58:46.234Z,23.50
2018-07-23T03:00:50.097Z,25.37
2018-07-23T03:02:54.124Z,28.70
2018-07-23T03:04:57.972Z,25.13
2018-07-23T03:07:03.091Z,24.20
2018-07-23T03:09:07.126Z,24.00
2018-07-23T03:11:11.022Z,23.10
2018-07-23T03:13:14.495Z,25.03
2018-07-23T03:15:18.217Z,24.92
2018-07-23T03:17:22.201Z,25.93
2018-07-23T03:19:25.814Z,27.30
2018-07-23T03:21:29.877Z,24.03
2018-07-23T03:23:33.744Z,21.87
2018-07-23T03:25:38.041Z,27.23
2018-07-23T03:27:41.868Z,24.83
2018-07-23T03:29:45.776Z,22.87
2018-07-23T03:31:49.771Z,24.73
2018-07-23T03:33:53.706Z,26.43
2018-07-23T03:35:57.608Z,25.87
2018-07-23T03:38:01.091Z,26.77
2018-07-23T03:40:04.968Z,27.13
2018-07-23T03:42:08.532Z,24.17
2018-07-23T03:44:11.984Z,26.80
2018-07-23T03:46:15.484Z,23.70
2018-07-23T03:48:19.328Z,23.32
2018-07-23T03:50:22.808Z,27.83
2018-07-23T03:52:26.245Z,18.98
2018-07-23T03:54:30.209Z,20.70
2018-07-23T03:56:33.620Z,22.63
2018-07-23T03:58:37.640Z,21.00
2018-07-23T04:00:41.608Z,23.27
2018-07-23T04:02:45.157Z,29.57
2018-07-23T04:04:49.025Z,32.55
2018-07-23T04:06:52.725Z,23.70
2018-07-23T04:08:56.868Z,28.20
2018-07-23T04:11:00.776Z,25.60
2018-07-23T04:13:04.620Z,27.10
2018-07-23T04:15:08.581Z,24.47
2018-07-23T04:17:12.525Z,22.43
2018-07-23T04:19:16.591Z,22.10
2018-07-23T04:21:20.464Z,20.50
2018-07-23T04:23:23.980Z,20.20
2018-07-23T04:25:28.157Z,23.00
2018-07-23T04:27:32.050Z,24.37
2018-07-23T04:29:35.905Z,25.77
2018-07-23T04:31:39.398Z,21.57
2018-07-23T04:33:43.231Z,26.75
2018-07-23T04:35:47.139Z,23.50
2018-07-23T04:37:50.941Z,23.30
2018-07-23T04:39:54.489Z,24.37
2018-07-23T04:41:57.947Z,23.05
2018-07-23T04:44:01.447Z,22.00
2018-07-23T04:46:05.092Z,24.37
2018-07-23T04:48:08.580Z,25.33
2018-07-23T04:50:11.987Z,25.23
2018-07-23T04:52:15.849Z,23.43
2018-07-23T04:54:19.704Z,27.50
2018-07-23T04:56:23.571Z,28.97
2018-07-23T04:58:27.433Z,32.23
2018-07-23T05:00:31.047Z,29.33
2018-07-23T05:02:34.995Z,24.40
2018-07-23T05:04:38.963Z,27.30
2018-07-23T05:06:42.789Z,26.23
2018-07-23T05:08:46.361Z,27.77
2018-07-23T05:10:50.242Z,26.12
2018-07-23T05:12:54.142Z,26.00
2018-07-23T05:14:57.555Z,31.50
2018-07-23T05:17:01.690Z,26.17
2018-07-23T05:19:05.651Z,28.60
2018-07-23T05:23:54.162Z,25.70
2018-07-23T05:25:57.615Z,28.97
2018-07-23T05:28:01.520Z,32.97
2018-07-23T05:30:05.834Z,27.20
2018-07-23T05:32:09.740Z,30.07
2018-07-23T05:34:13.551Z,27.97
2018-07-23T05:36:17.412Z,27.37
2018-07-23T05:38:20.964Z,27.67
2018-07-23T05:40:24.882Z,26.73
2018-07-23T05:42:28.295Z,32.63
2018-07-23T05:44:32.199Z,34.33
2018-07-23T05:46:36.034Z,30.27
2018-07-23T05:48:39.972Z,25.23
2018-07-23T05:50:43.817Z,33.87
2018-07-23T05:52:47.758Z,25.10
2018-07-23T05:54:51.653Z,28.77
2018-07-23T05:56:55.538Z,29.60
2018-07-23T05:58:59.410Z,27.17
2018-07-23T06:01:03.338Z,33.13
2018-07-23T06:03:07.166Z,27.57
2018-07-23T06:05:11.215Z,28.10
2018-07-23T06:07:15.046Z,26.00
2018-07-23T06:09:18.986Z,21.53
2018-07-23T06:11:22.779Z,25.63
2018-07-23T06:13:26.691Z,25.47
2018-07-23T06:15:30.558Z,24.87
2018-07-23T06:17:34.465Z,23.00
2018-07-23T06:19:37.890Z,24.03
2018-07-23T06:21:41.788Z,22.97
2018-07-23T06:23:45.220Z,22.00
2018-07-23T06:25:49.157Z,22.43
2018-07-23T06:27:53.392Z,37.47
2018-07-23T06:29:57.320Z,23.57
2018-07-23T06:32:01.196Z,24.90
2018-07-23T06:34:04.823Z,28.87
2018-07-23T06:36:08.714Z,25.27
2018-07-23T06:38:12.646Z,26.03
2018-07-23T06:40:16.504Z,28.47
2018-07-23T06:42:20.542Z,24.03
2018-07-23T06:44:24.356Z,23.70
2018-07-23T06:46:28.288Z,28.70
2018-07-23T06:48:32.158Z,24.67
2018-07-23T06:50:36.066Z,24.27
2018-07-23T06:52:39.873Z,26.57
2018-07-23T06:54:43.779Z,25.10
2018-07-23T06:56:47.621Z,20.97
2018-07-23T06:58:51.503Z,22.97
2018-07-23T07:00:55.340Z,27.93
2018-07-23T07:02:59.220Z,34.23
2018-07-23T07:05:04.509Z,24.10
2018-07-23T07:07:08.030Z,24.03
2018-07-23T07:09:11.840Z,23.87
2018-07-23T07:11:15.750Z,26.03
2018-07-23T07:13:19.583Z,23.27
2018-07-23T07:15:23.567Z,24.80
2018-07-23T07:17:27.386Z,20.90
2018-07-23T07:19:31.313Z,21.97
2018-07-23T07:21:35.243Z,23.97
2018-07-23T07:23:39.217Z,24.17
2018-07-23T07:25:43.175Z,22.13
2018-07-23T07:27:47.077Z,21.57
2018-07-23T07:29:50.839Z,20.63
2018-07-23T07:31:54.768Z,20.10
2018-07-23T07:33:58.210Z,20.50
2018-07-23T07:36:02.146Z,20.63
2018-07-23T07:38:06.064Z,17.43
2018-07-23T07:40:09.961Z,24.20
2018-07-23T07:42:13.761Z,21.37
2018-07-23T07:44:17.647Z,21.17
2018-07-23T07:46:21.581Z,23.00
2018-07-23T07:48:27.236Z,21.20
2018-07-23T07:50:31.139Z,17.53
2018-07-23T07:52:34.981Z,23.10
2018-07-23T07:54:38.892Z,18.60
2018-07-23T07:56:42.296Z,20.07
2018-07-23T07:58:46.201Z,16.97
2018-07-23T08:00:50.017Z,18.23
2018-07-23T08:02:53.929Z,16.53
2018-07-23T08:04:57.782Z,12.93
2018-07-23T08:07:01.687Z,18.80
2018-07-23T08:09:07.647Z,14.90
2018-07-23T08:11:11.583Z,18.60
2018-07-23T08:13:15.451Z,15.27
2018-07-23T08:15:19.348Z,13.90
2018-07-23T08:17:22.796Z,10.57
2018-07-23T08:19:27.053Z,14.03
2018-07-23T08:21:30.943Z,12.10
2018-07-23T08:23:34.897Z,12.57
2018-07-23T08:25:38.734Z,9.90
2018-07-23T08:27:42.247Z,14.43
2018-07-23T08:29:46.166Z,11.00
2018-07-23T08:31:50.100Z,12.00
2018-07-23T08:33:53.886Z,11.47
2018-07-23T08:35:57.868Z,19.03
2018-07-23T08:38:01.315Z,11.17
2018-07-23T08:40:05.472Z,13.43
2018-07-23T08:42:09.331Z,16.23
2018-07-23T08:44:12.844Z,10.20
2018-07-23T08:46:16.692Z,12.85
2018-07-23T08:48:20.737Z,12.83
2018-07-23T08:50:24.562Z,14.63
2018-07-23T08:52:28.472Z,14.97
2018-07-23T08:54:32.454Z,15.27
2018-07-23T08:56:36.421Z,13.27
2018-07-23T08:58:40.228Z,13.20
2018-07-23T09:00:44.219Z,12.30
2018-07-23T09:02:48.054Z,12.60
2018-07-23T09:04:51.740Z,14.67
2018-07-23T09:06:55.627Z,12.13
2018-07-23T09:08:59.570Z,14.60
2018-07-23T09:11:03.407Z,14.53
2018-07-23T09:13:07.337Z,14.70
2018-07-23T09:15:12.303Z,14.13
2018-07-23T09:17:16.391Z,20.87
2018-07-23T09:19:21.089Z,17.67
2018-07-23T09:21:25.070Z,17.03
2018-07-23T09:23:28.927Z,18.23
2018-07-23T09:25:38.078Z,17.40
2018-07-23T09:27:41.965Z,14.60
2018-07-23T09:29:45.943Z,16.10
2018-07-23T09:31:49.948Z,16.77
2018-07-23T09:33:53.760Z,14.60
2018-07-23T09:35:57.677Z,14.43
2018-07-23T09:38:01.481Z,12.63
2018-07-23T09:40:05.964Z,16.00
2018-07-23T09:42:09.729Z,12.10
2018-07-23T09:44:13.579Z,15.77
2018-07-23T09:46:17.699Z,14.27
2018-07-23T09:48:21.610Z,14.07
2018-07-23T09:50:25.459Z,15.83
2018-07-23T09:52:30.571Z,11.03
2018-07-23T09:54:34.452Z,11.70
2018-07-23T09:56:37.877Z,11.33
2018-07-23T09:58:41.812Z,10.43
2018-07-23T10:00:50.976Z,10.57
2018-07-23T10:02:55.980Z,13.60
2018-07-23T10:04:59.665Z,10.80
2018-07-23T10:07:04.548Z,12.68
2018-07-23T10:09:10.946Z,11.03
2018-07-23T10:11:14.890Z,10.63
2018-07-23T10:13:18.715Z,14.43
2018-07-23T10:15:22.225Z,14.50
2018-07-23T10:17:26.134Z,11.08
2018-07-23T10:19:30.021Z,13.37
2018-07-23T10:21:33.835Z,14.50
2018-07-23T10:23:37.794Z,13.67
2018-07-23T10:25:41.612Z,9.83
2018-07-23T10:27:45.463Z,15.57
2018-07-23T10:29:49.290Z,12.73
2018-07-23T10:31:53.307Z,11.37
2018-07-23T10:33:57.163Z,12.50
2018-07-23T10:36:01.176Z,11.23
2018-07-23T10:38:05.001Z,10.90
2018-07-23T10:40:09.039Z,11.90
2018-07-23T10:42:12.875Z,11.93
2018-07-23T10:44:16.390Z,9.53
2018-07-23T10:46:20.203Z,15.63
2018-07-23T10:48:24.060Z,15.20
2018-07-23T10:50:27.844Z,10.20
2018-07-23T10:52:31.777Z,8.00
2018-07-23T10:54:35.633Z,10.33
2018-07-23T10:56:39.517Z,7.33
2018-07-23T10:58:43.431Z,12.90
2018-07-23T11:00:47.368Z,11.50
2018-07-23T11:02:51.181Z,11.87
2018-07-23T11:04:54.716Z,12.33
2018-07-23T11:06:58.502Z,12.23
2018-07-23T11:09:02.422Z,12.37
2018-07-23T11:11:06.281Z,9.50
2018-07-23T11:13:09.871Z,8.70
2018-07-23T11:15:13.679Z,11.55
2018-07-23T11:17:18.750Z,14.50
2018-07-23T11:19:22.892Z,11.70
2018-07-23T11:21:26.727Z,16.23
2018-07-23T11:23:30.589Z,10.63
2018-07-23T11:25:41.037Z,13.23
2018-07-23T11:27:38.046Z,12.90
2018-07-23T11:29:41.874Z,9.98
2018-07-23T11:31:45.770Z,11.13
2018-07-23T11:33:49.627Z,13.20
2018-07-23T11:35:57.057Z,10.17
2018-07-23T11:38:00.934Z,12.03
2018-07-23T11:40:04.973Z,15.20
2018-07-23T11:42:08.865Z,9.27
2018-07-23T11:44:12.679Z,14.73
2018-07-23T11:46:24.789Z,10.30
2018-07-23T11:48:20.483Z,10.60
2018-07-23T11:50:24.368Z,9.60
2018-07-23T11:52:27.994Z,13.93
2018-07-23T11:54:31.975Z,14.17
2018-07-23T11:56:35.873Z,10.60
2018-07-23T11:58:39.863Z,10.90
2018-07-23T12:00:43.737Z,13.00
2018-07-23T12:02:47.683Z,11.10
2018-07-23T12:04:51.476Z,11.87
2018-07-23T12:06:54.973Z,11.93
2018-07-23T12:08:58.458Z,15.93
2018-07-23T12:11:02.371Z,12.93
2018-07-23T12:13:06.233Z,17.23
2018-07-23T12:15:10.166Z,10.20
2018-07-23T12:17:13.949Z,10.20
2018-07-23T12:19:17.439Z,15.50
2018-07-23T12:21:21.279Z,11.60
2018-07-23T12:23:25.190Z,9.00
2018-07-23T12:25:29.247Z,7.23
2018-07-23T12:27:33.227Z,9.40
2018-07-23T12:29:37.004Z,10.33
2018-07-23T12:31:40.864Z,10.90
2018-07-23T12:33:44.745Z,13.20
2018-07-23T12:35:48.698Z,10.03
2018-07-23T12:37:52.485Z,8.27
2018-07-23T12:39:55.988Z,8.90
2018-07-23T12:41:59.349Z,14.28
2018-07-23T12:44:03.260Z,8.47
2018-07-23T12:46:07.066Z,9.83
2018-07-23T12:48:11.142Z,8.30
2018-07-23T12:50:14.602Z,7.90
2018-07-23T12:52:18.473Z,6.57
2018-07-23T12:54:21.933Z,7.73
2018-07-23T12:56:25.884Z,8.60
2018-07-23T12:58:29.665Z,10.57
2018-07-23T13:00:33.566Z,7.67
2018-07-23T13:02:37.594Z,8.03
2018-07-23T13:04:41.557Z,9.60
2018-07-23T13:06:45.361Z,8.77
2018-07-23T13:08:49.341Z,7.23
2018-07-23T13:10:53.337Z,7.77
2018-07-23T13:12:57.011Z,8.80
2018-07-23T13:15:01.006Z,6.83
2018-07-23T13:17:04.687Z,7.20
2018-07-23T13:19:08.291Z,9.68
2018-07-23T13:21:11.822Z,11.40
2018-07-23T13:23:15.686Z,10.55
2018-07-23T13:25:19.628Z,8.23
2018-07-23T13:27:23.396Z,9.20
2018-07-23T13:29:28.452Z,14.33
2018-07-23T13:31:32.251Z,9.23
2018-07-23T13:33:35.879Z,8.63
2018-07-23T13:35:39.317Z,9.00
2018-07-23T13:37:43.975Z,5.47
2018-07-23T13:39:48.449Z,6.15
2018-07-23T13:41:52.368Z,5.63
2018-07-23T13:43:56.176Z,6.90
2018-07-23T13:46:00.037Z,8.27
2018-07-23T13:48:03.960Z,6.33
2018-07-23T13:50:08.040Z,16.33
2018-07-23T13:52:11.836Z,6.87
2018-07-23T13:54:15.841Z,10.37
2018-07-23T13:56:19.763Z,10.10
2018-07-23T13:58:23.739Z,8.40
2018-07-23T14:00:27.728Z,6.60
2018-07-23T14:02:31.411Z,9.13
2018-07-23T14:04:35.225Z,12.18
2018-07-23T14:06:39.707Z,8.63
2018-07-23T14:08:43.517Z,8.48
2018-07-23T14:10:47.160Z,7.33
2018-07-23T14:12:51.096Z,14.23
2018-07-23T14:14:55.055Z,9.23
2018-07-23T14:17:01.145Z,6.43
2018-07-23T14:19:08.693Z,5.83
2018-07-23T14:21:12.357Z,6.83
2018-07-23T14:23:23.013Z,7.78
2018-07-23T14:25:26.951Z,5.57
2018-07-23T14:27:30.521Z,6.83
2018-07-23T14:29:41.663Z,7.17
2018-07-23T14:31:45.642Z,6.70
2018-07-23T14:34:03.892Z,9.80
2018-07-23T14:36:07.852Z,6.97
2018-07-23T14:38:14.622Z,4.90
2018-07-23T14:40:19.829Z,5.67
2018-07-23T14:42:24.023Z,6.30
2018-07-23T14:44:28.556Z,5.43
2018-07-23T14:46:32.857Z,5.10
2018-07-23T14:48:39.907Z,5.13
2018-07-23T14:50:43.893Z,5.10
2018-07-23T14:52:49.022Z,5.77
2018-07-23T14:54:53.167Z,5.60
2018-07-23T14:56:57.047Z,6.13
2018-07-23T14:59:01.997Z,5.20
2018-07-23T15:01:05.765Z,6.20
2018-07-23T15:03:09.609Z,10.50
2018-07-23T15:05:13.212Z,6.40
2018-07-23T15:07:17.169Z,5.25
2018-07-23T15:09:21.142Z,5.30
2018-07-23T15:11:25.032Z,10.80
2018-07-23T15:26:42.495Z,36.93
2018-07-23T16:00:12.654Z,7.37
2018-07-23T16:02:16.476Z,7.37
2018-07-23T16:04:20.343Z,5.50
2018-07-23T16:06:24.892Z,5.60
2018-07-23T16:08:28.845Z,10.33
2018-07-23T16:10:32.626Z,5.93
2018-07-23T16:12:36.854Z,5.23
2018-07-23T16:14:40.280Z,5.93
2018-07-23T16:16:44.105Z,7.33
2018-07-23T16:18:47.920Z,8.07
2018-07-23T16:20:51.343Z,4.93
2018-07-23T16:22:55.173Z,7.42
2018-07-23T16:24:59.115Z,10.07
2018-07-23T16:27:02.965Z,8.27
2018-07-23T16:29:06.925Z,5.23
2018-07-23T16:31:10.827Z,5.10
2018-07-23T16:33:14.765Z,5.63
2018-07-23T16:35:18.544Z,7.20
2018-07-23T16:37:22.422Z,5.80
2018-07-23T16:39:26.464Z,5.30
2018-07-23T16:41:30.445Z,5.37
2018-07-23T16:43:33.906Z,4.90
2018-07-23T16:45:37.843Z,7.27
2018-07-23T16:47:41.925Z,6.80
2018-07-23T16:49:45.565Z,8.60
2018-07-23T16:51:49.353Z,5.87
2018-07-23T16:53:53.293Z,5.30
2018-07-23T16:55:57.252Z,7.47
2018-07-23T16:58:00.875Z,5.53
2018-07-23T17:00:05.818Z,6.45
2018-07-23T17:02:09.256Z,8.03
2018-07-23T17:04:12.713Z,5.85
2018-07-23T17:06:16.875Z,7.73
2018-07-23T17:08:20.302Z,6.40
2018-07-23T17:10:24.127Z,5.23
2018-07-23T17:12:28.008Z,23.33
2018-07-23T17:14:31.922Z,4.53
2018-07-23T17:16:35.821Z,7.53
2018-07-23T17:18:39.718Z,5.77
2018-07-23T17:20:43.510Z,10.57
2018-07-23T17:22:47.037Z,25.07
2018-07-23T17:24:51.064Z,6.45
2018-07-23T17:26:55.032Z,9.83
2018-07-23T17:28:58.862Z,5.73
2018-07-23T17:31:02.314Z,5.60
2018-07-23T17:33:05.817Z,6.40
2018-07-23T17:35:09.721Z,4.83
2018-07-23T17:37:13.570Z,6.90
2018-07-23T17:39:17.058Z,4.83
2018-07-23T17:41:20.885Z,5.67
2018-07-23T17:43:24.751Z,5.07
2018-07-23T17:45:28.226Z,5.17
2018-07-23T17:47:31.854Z,6.40
2018-07-23T17:49:35.449Z,7.22
2018-07-23T17:51:39.938Z,5.03
2018-07-23T17:53:44.578Z,5.37
2018-07-23T17:55:48.914Z,5.77
2018-07-23T17:57:53.348Z,7.37
2018-07-23T17:59:57.044Z,11.43
2018-07-23T18:02:01.313Z,5.03
2018-07-23T18:04:05.348Z,8.23
2018-07-23T18:06:09.729Z,5.13
2018-07-23T18:08:14.050Z,5.00
2018-07-23T18:10:18.117Z,6.20
2018-07-23T18:12:21.884Z,5.00
2018-07-23T18:14:26.230Z,5.13
2018-07-23T18:16:30.337Z,5.13
2018-07-23T18:18:34.448Z,5.33
2018-07-23T18:20:38.751Z,6.83
2018-07-23T18:22:42.971Z,6.35
2018-07-23T18:24:47.065Z,5.03
2018-07-23T18:26:51.261Z,4.50
2018-07-23T18:28:55.691Z,5.93
2018-07-23T18:30:59.689Z,4.50
2018-07-23T18:33:03.926Z,4.43
2018-07-23T18:35:08.375Z,5.55
2018-07-23T18:37:12.465Z,6.70
2018-07-23T18:39:16.783Z,30.53
2018-07-23T18:41:20.886Z,18.70
2018-07-23T18:43:24.969Z,14.00
2018-07-23T18:45:29.092Z,7.07
2018-07-23T18:47:33.223Z,7.37
2018-07-23T18:49:49.902Z,11.53
2018-07-23T18:51:54.762Z,6.10
2018-07-23T18:53:58.923Z,5.85
2018-07-23T18:56:03.329Z,6.03
2018-07-23T18:58:07.363Z,4.00
2018-07-23T19:00:11.594Z,6.70
2018-07-23T19:02:17.511Z,6.60
2018-07-23T19:04:22.679Z,8.60
2018-07-23T19:06:26.976Z,4.90
2018-07-23T19:08:31.367Z,4.58
2018-07-23T19:10:36.735Z,5.80
2018-07-23T19:12:40.813Z,5.23
2018-07-23T19:14:45.192Z,5.83
2018-07-23T19:16:50.202Z,6.50
2018-07-23T19:18:54.583Z,8.90
2018-07-23T19:20:58.963Z,5.83
2018-07-23T19:23:03.227Z,57.60
2018-07-23T19:25:07.742Z,6.50
2018-07-23T19:27:11.977Z,9.80
2018-07-23T19:29:16.410Z,23.03
2018-07-23T19:31:20.919Z,37.23
2018-07-23T19:33:24.627Z,19.25
2018-07-23T19:35:28.688Z,43.80
2018-07-23T19:37:34.889Z,36.97
2018-07-23T19:39:39.088Z,36.10
2018-07-23T19:41:42.634Z,14.13
2018-07-23T19:43:46.237Z,12.60
2018-07-23T19:45:49.878Z,12.13
2018-07-23T19:47:54.085Z,13.27
2018-07-23T19:49:58.422Z,12.60
2018-07-23T19:52:02.606Z,14.50
2018-07-23T19:54:07.388Z,9.97
2018-07-23T19:56:11.796Z,11.30
2018-07-23T19:58:15.337Z,9.30
2018-07-23T20:00:18.907Z,9.40
2018-07-23T20:02:22.552Z,8.48
2018-07-23T20:04:26.464Z,14.73
2018-07-23T20:06:30.641Z,8.53
2018-07-23T20:08:34.674Z,12.63
2018-07-23T20:10:38.083Z,10.77
2018-07-23T20:12:41.951Z,8.03
2018-07-23T20:14:45.431Z,10.60
2018-07-23T20:16:49.398Z,8.43
2018-07-23T20:18:52.785Z,9.23
2018-07-23T20:20:56.881Z,11.20
2018-07-23T20:23:00.300Z,12.50
2018-07-23T20:25:03.827Z,9.00
2018-07-23T20:27:07.891Z,9.40
2018-07-23T20:29:11.450Z,8.40
2018-07-23T20:31:15.300Z,8.65
2018-07-23T20:33:19.962Z,11.17
2018-07-23T20:35:23.817Z,8.15
2018-07-23T20:37:27.725Z,8.70
2018-07-23T20:39:31.672Z,9.57
2018-07-23T20:41:35.175Z,7.93
2018-07-23T20:43:39.073Z,11.22
2018-07-23T20:45:43.065Z,12.33
2018-07-23T20:47:46.479Z,10.00
2018-07-23T20:49:50.432Z,8.77
2018-07-23T20:51:54.412Z,10.77
2018-07-23T20:53:58.385Z,12.53
2018-07-23T20:56:01.808Z,9.90
2018-07-23T20:58:05.929Z,26.40
2018-07-23T21:00:09.436Z,16.13
2018-07-23T21:02:13.378Z,9.73
2018-07-23T21:04:16.800Z,9.67
2018-07-23T21:06:20.975Z,9.90
2018-07-23T21:08:24.431Z,10.37
2018-07-23T21:10:28.328Z,8.70
2018-07-23T21:12:32.169Z,9.20
2018-07-23T21:14:35.671Z,10.30
2018-07-23T21:16:39.990Z,8.98
2018-07-23T21:18:43.578Z,7.33
2018-07-23T21:20:47.446Z,9.00
2018-07-23T21:22:50.989Z,8.27
2018-07-23T21:24:54.792Z,8.58
2018-07-23T21:26:59.108Z,10.40
2018-07-23T21:29:03.011Z,8.28
2018-07-23T21:31:06.717Z,9.47
2018-07-23T21:33:10.148Z,14.40
2018-07-23T21:35:18.179Z,10.63
2018-07-23T21:37:21.791Z,13.77
2018-07-23T21:39:25.848Z,10.08
2018-07-23T21:41:29.974Z,9.27
2018-07-23T21:43:33.417Z,9.93
2018-07-23T21:45:37.385Z,10.67
2018-07-23T21:47:41.364Z,11.07
2018-07-23T21:49:45.346Z,12.73
2018-07-23T21:51:49.244Z,8.47
2018-07-23T21:53:52.778Z,11.90
2018-07-23T21:55:56.578Z,10.58
2018-07-23T21:58:00.442Z,8.87
2018-07-23T22:00:07.263Z,10.40
2018-07-23T22:02:10.759Z,9.93
2018-07-23T22:04:14.165Z,8.75
2018-07-23T22:06:22.521Z,9.70
2018-07-23T22:08:26.446Z,13.93
2018-07-23T22:10:30.267Z,15.10
2018-07-23T22:12:34.231Z,9.77
2018-07-23T22:14:38.057Z,9.53
2018-07-23T22:16:41.984Z,11.37
2018-07-23T22:18:46.303Z,10.77
2018-07-23T22:20:50.150Z,12.63
2018-07-23T22:22:54.005Z,12.00
2018-07-23T22:24:57.905Z,14.23
2018-07-23T22:27:01.786Z,12.57
2018-07-23T22:29:05.807Z,14.87
2018-07-23T22:31:09.643Z,10.57
2018-07-23T22:33:14.712Z,14.40
2018-07-23T22:35:18.238Z,10.27
2018-07-23T22:37:22.149Z,10.60
2018-07-23T22:39:26.223Z,14.80
2018-07-23T22:41:30.111Z,13.03
2018-07-23T22:43:33.997Z,10.17
2018-07-23T22:45:37.866Z,12.83
2018-07-23T22:47:42.005Z,14.80
2018-07-23T22:49:45.945Z,10.23
2018-07-23T22:51:49.927Z,12.43
2018-07-23T22:53:53.630Z,16.40
2018-07-23T22:55:57.476Z,10.17
2018-07-23T22:58:01.345Z,11.90
2018-07-23T23:00:06.308Z,10.30
2018-07-23T23:02:10.360Z,12.37
2018-07-23T23:04:14.138Z,16.90
2018-07-23T23:06:18.021Z,10.23
2018-07-23T23:08:21.874Z,13.27
2018-07-23T23:10:25.781Z,11.70
2018-07-23T23:12:29.676Z,12.37
2018-07-23T23:14:33.524Z,11.13
2018-07-23T23:16:37.171Z,14.70
2018-07-23T23:18:40.649Z,13.93
2018-07-23T23:20:44.527Z,11.55
2018-07-23T23:22:48.420Z,12.23
2018-07-23T23:24:52.242Z,10.43
2018-07-23T23:26:56.142Z,12.37
2018-07-23T23:29:00.032Z,12.80
2018-07-23T23:31:03.698Z,12.43
2018-07-23T23:33:07.479Z,13.32
2018-07-23T23:35:11.109Z,10.83
2018-07-23T23:37:14.891Z,11.88
2018-07-23T23:39:19.894Z,19.30
2018-07-23T23:41:23.911Z,12.60
2018-07-23T23:43:27.713Z,13.17
2018-07-23T23:45:31.583Z,12.90
2018-07-23T23:47:35.456Z,15.90
2018-07-23T23:49:39.341Z,13.13
2018-07-23T23:51:42.775Z,12.30
2018-07-23T23:53:46.643Z,10.70
2018-07-23T23:55:50.468Z,11.87
2018-07-23T23:57:54.306Z,19.43
2018-07-23T23:59:58.126Z,12.03
